Terminal Aerodrome Forecast
Issued by NWS

Home | Current Version | Previous Version | Graphics & Text | Print | Product List | Glossary On
Versions: 1 2 3 4 5 6 7 8 9 10 11 12 13 14 15 16 17 18 19
000
FTUS43 KICT 160416 AAA
TAFSLN
TAF AMD
KSLN 160416Z 1604/1624 12011KT P6SM BKN035
     FM160900 11008KT 4SM BR BKN010
     FM161600 15012KT P6SM SCT015 BKN030=

USA.gov is the U.S. government's official web portal to all federal, state and local government web resources and services.